createdAt,value
2019-02-11T00:01:46.662Z,11.80
2019-02-11T00:04:12.844Z,11.73
2019-02-11T00:06:39.173Z,11.69
2019-02-11T00:09:07.241Z,11.77
2019-02-11T00:11:33.430Z,12.12
2019-02-11T00:13:59.769Z,12.08
2019-02-11T00:16:25.937Z,11.85
2019-02-11T00:18:52.232Z,12.17
2019-02-11T00:21:18.586Z,11.36
2019-02-11T00:23:44.766Z,11.86
2019-02-11T00:26:11.431Z,11.65
2019-02-11T00:28:37.752Z,12.11
2019-02-11T00:31:03.938Z,12.20
2019-02-11T00:33:30.117Z,12.20
2019-02-11T00:35:56.465Z,12.09
2019-02-11T00:38:22.636Z,11.86
2019-02-11T00:40:48.910Z,12.09
2019-02-11T00:43:19.266Z,12.24
2019-02-11T00:45:43.309Z,11.61
2019-02-11T00:48:09.595Z,12.13
2019-02-11T00:50:35.942Z,12.35
2019-02-11T00:53:02.233Z,12.28
2019-02-11T00:55:28.422Z,12.23
2019-02-11T00:57:54.756Z,12.30
2019-02-11T01:00:20.938Z,12.15
2019-02-11T01:02:47.219Z,11.75
2019-02-11T01:05:13.451Z,11.81
2019-02-11T01:07:39.625Z,11.77
2019-02-11T01:10:08.317Z,11.63
2019-02-11T01:12:34.532Z,11.30
2019-02-11T01:15:00.807Z,11.08
2019-02-11T01:17:27.104Z,11.48
2019-02-11T01:19:53.331Z,11.59
2019-02-11T01:22:19.621Z,12.07
2019-02-11T01:24:45.892Z,12.42
2019-02-11T01:27:12.108Z,12.46
2019-02-11T01:29:38.286Z,11.99
2019-02-11T01:32:04.583Z,12.08
2019-02-11T01:34:30.801Z,12.18
2019-02-11T01:36:57.077Z,11.53
2019-02-11T01:39:23.365Z,11.70
2019-02-11T01:41:49.490Z,11.80
2019-02-11T01:44:15.685Z,12.03
2019-02-11T01:46:41.985Z,12.44
2019-02-11T01:49:08.199Z,12.33
2019-02-11T01:51:34.588Z,12.31
2019-02-11T01:54:00.879Z,12.62
2019-02-11T01:56:27.101Z,12.64
2019-02-11T01:58:53.367Z,12.47
2019-02-11T02:01:19.654Z,12.56
2019-02-11T02:03:45.973Z,12.44
2019-02-11T02:06:12.252Z,11.86
2019-02-11T02:08:38.545Z,12.77
2019-02-11T02:11:04.762Z,12.62
2019-02-11T02:13:30.937Z,12.40
2019-02-11T02:15:57.214Z,12.18
2019-02-11T02:18:23.435Z,12.49
2019-02-11T02:20:49.725Z,12.50
2019-02-11T02:23:15.911Z,12.40
2019-02-11T02:25:42.137Z,12.17
2019-02-11T02:28:08.358Z,11.56
2019-02-11T02:30:34.603Z,11.70
2019-02-11T02:33:00.814Z,11.65
2019-02-11T02:35:26.988Z,12.07
2019-02-11T02:37:53.290Z,12.06
2019-02-11T02:40:19.512Z,12.34
2019-02-11T02:42:45.680Z,12.27
2019-02-11T02:45:11.946Z,12.23
2019-02-11T02:47:38.158Z,12.40
2019-02-11T02:50:07.153Z,12.50
2019-02-11T02:52:33.424Z,12.45
2019-02-11T02:54:59.649Z,12.72
2019-02-11T02:57:25.842Z,12.79
2019-02-11T02:59:52.127Z,12.55
2019-02-11T03:02:18.434Z,12.44
2019-02-11T03:04:44.628Z,12.56
2019-02-11T03:07:10.911Z,12.12
2019-02-11T03:09:37.142Z,12.28
2019-02-11T03:12:03.434Z,12.19
2019-02-11T03:14:29.701Z,11.92
2019-02-11T03:16:55.923Z,12.62
2019-02-11T03:19:22.101Z,12.49
2019-02-11T03:21:48.281Z,12.64
2019-02-11T03:24:14.487Z,12.40
2019-02-11T03:26:40.771Z,12.53
2019-02-11T03:29:07.081Z,12.58
2019-02-11T03:31:33.299Z,12.76
2019-02-11T03:33:59.473Z,12.54
2019-02-11T03:36:25.757Z,12.53
2019-02-11T03:38:51.999Z,12.61
2019-02-11T03:41:18.184Z,11.86
2019-02-11T03:43:44.359Z,12.09
2019-02-11T03:46:10.575Z,12.16
2019-02-11T03:48:36.758Z,12.34
2019-02-11T03:51:02.917Z,12.13
2019-02-11T03:53:29.245Z,12.21
2019-02-11T03:55:55.425Z,12.24
2019-02-11T03:58:21.630Z,12.37
2019-02-11T04:00:47.958Z,12.45
2019-02-11T04:03:14.144Z,12.50
2019-02-11T04:05:40.417Z,12.78
2019-02-11T04:08:06.762Z,12.94
2019-02-11T04:10:33.002Z,13.27
2019-02-11T04:12:59.334Z,12.87
2019-02-11T04:15:25.567Z,13.29
2019-02-11T04:17:51.862Z,13.45
2019-02-11T04:20:18.156Z,13.28
2019-02-11T04:22:44.403Z,13.04
2019-02-11T04:25:10.585Z,13.54
2019-02-11T04:27:36.777Z,13.48
2019-02-11T04:30:05.024Z,13.56
2019-02-11T04:32:31.186Z,13.51
2019-02-11T04:34:57.462Z,13.34
2019-02-11T04:37:23.859Z,13.68
2019-02-11T04:39:50.080Z,13.46
2019-02-11T04:42:16.258Z,14.48
2019-02-11T04:44:42.496Z,14.76
2019-02-11T04:47:08.685Z,14.69
2019-02-11T04:49:34.965Z,14.74
2019-02-11T04:52:01.283Z,14.74
2019-02-11T04:54:27.566Z,14.95
2019-02-11T04:56:53.764Z,14.90
2019-02-11T04:59:20.245Z,15.05
2019-02-11T05:01:46.517Z,15.12
2019-02-11T05:04:12.798Z,14.91
2019-02-11T05:06:39.138Z,15.72
2019-02-11T05:09:05.629Z,15.40
2019-02-11T05:11:31.922Z,14.89
2019-02-11T05:13:58.192Z,15.34
2019-02-11T05:16:24.438Z,15.58
2019-02-11T05:18:50.741Z,14.98
2019-02-11T05:21:16.984Z,14.60
2019-02-11T05:23:43.258Z,14.57
2019-02-11T05:26:09.571Z,14.59
2019-02-11T05:28:35.802Z,15.12
2019-02-11T05:31:02.100Z,14.82
2019-02-11T05:33:28.404Z,14.41
2019-02-11T05:35:54.631Z,15.14
2019-02-11T05:38:20.920Z,15.41
2019-02-11T05:40:47.224Z,15.40
2019-02-11T05:43:13.445Z,15.01
2019-02-11T05:45:39.730Z,14.48
2019-02-11T05:48:06.074Z,14.45
2019-02-11T05:50:32.278Z,14.36
2019-02-11T05:52:58.564Z,14.26
2019-02-11T05:55:24.835Z,14.37
2019-02-11T05:57:51.071Z,13.44
2019-02-11T06:00:18.160Z,13.79
2019-02-11T06:02:44.450Z,13.67
2019-02-11T06:05:10.663Z,13.80
2019-02-11T06:07:36.854Z,13.88
2019-02-11T06:10:06.438Z,14.27
2019-02-11T06:12:32.687Z,14.45
2019-02-11T06:15:04.230Z,14.75
2019-02-11T06:17:27.070Z,14.83
2019-02-11T06:19:53.292Z,15.28
2019-02-11T06:22:19.584Z,14.76
2019-02-11T06:24:45.774Z,15.41
2019-02-11T06:27:12.364Z,15.95
2019-02-11T06:29:39.039Z,16.39
2019-02-11T06:32:05.241Z,15.92
2019-02-11T06:34:31.505Z,16.67
2019-02-11T06:36:57.809Z,16.91
2019-02-11T06:39:23.999Z,17.16
2019-02-11T06:41:50.339Z,16.85
2019-02-11T06:44:16.637Z,16.29
2019-02-11T06:46:42.934Z,16.36
2019-02-11T06:49:09.276Z,16.81
2019-02-11T06:51:35.564Z,16.78
2019-02-11T06:54:01.747Z,15.94
2019-02-11T06:56:28.100Z,16.73
2019-02-11T06:58:54.387Z,16.43
2019-02-11T07:01:20.590Z,15.63
2019-02-11T07:03:46.830Z,15.37
2019-02-11T07:06:13.122Z,15.82
2019-02-11T07:08:39.293Z,15.17
2019-02-11T07:11:05.630Z,15.41
2019-02-11T07:13:31.918Z,14.96
2019-02-11T07:15:58.108Z,15.06
2019-02-11T07:18:24.471Z,15.30
2019-02-11T07:20:50.758Z,15.20
2019-02-11T07:23:17.422Z,15.38
2019-02-11T07:25:43.774Z,15.49
2019-02-11T07:28:10.088Z,15.60
2019-02-11T07:30:36.277Z,16.42
2019-02-11T07:33:02.647Z,17.07
2019-02-11T07:35:28.976Z,17.82
2019-02-11T07:37:55.286Z,18.60
2019-02-11T07:40:21.514Z,19.45
2019-02-11T07:42:52.616Z,19.36
2019-02-11T07:45:29.911Z,20.13
2019-02-11T07:47:51.355Z,20.34
2019-02-11T07:50:17.560Z,19.39
2019-02-11T07:52:43.782Z,20.40
2019-02-11T07:55:09.975Z,19.81
2019-02-11T07:57:36.150Z,20.43
2019-02-11T08:00:03.316Z,20.42
2019-02-11T08:02:29.641Z,20.55
2019-02-11T08:04:55.843Z,20.26
2019-02-11T08:07:22.197Z,21.29
2019-02-11T08:09:48.383Z,21.74
2019-02-11T08:12:14.581Z,21.65
2019-02-11T08:14:41.355Z,19.75
2019-02-11T08:17:07.551Z,19.99
2019-02-11T08:19:33.724Z,21.18
2019-02-11T08:22:00.087Z,21.63
2019-02-11T08:24:26.265Z,21.68
2019-02-11T08:26:52.471Z,21.22
2019-02-11T08:29:18.790Z,21.35
2019-02-11T08:31:45.067Z,21.63
2019-02-11T08:34:11.342Z,20.85
2019-02-11T08:36:37.624Z,21.13
2019-02-11T08:39:04.498Z,22.06
2019-02-11T08:41:30.697Z,22.78
2019-02-11T08:43:58.282Z,23.36
2019-02-11T08:46:24.600Z,23.79
2019-02-11T08:48:50.890Z,23.54
2019-02-11T08:51:17.196Z,23.69
2019-02-11T08:53:43.386Z,23.77
2019-02-11T08:56:09.566Z,22.60
2019-02-11T08:58:35.782Z,22.63
2019-02-11T09:01:02.098Z,22.62
2019-02-11T09:03:28.408Z,22.75
2019-02-11T09:05:54.633Z,23.01
2019-02-11T09:08:20.928Z,23.03
2019-02-11T09:10:53.830Z,23.59
2019-02-11T09:13:20.157Z,23.54
2019-02-11T09:15:46.334Z,23.45
2019-02-11T09:18:12.526Z,23.30
2019-02-11T09:20:38.854Z,22.88
2019-02-11T09:23:05.043Z,23.64
2019-02-11T09:25:31.331Z,23.74
2019-02-11T09:27:57.577Z,24.10
2019-02-11T09:30:24.106Z,23.46
2019-02-11T09:32:50.399Z,22.80
2019-02-11T09:35:16.731Z,23.20
2019-02-11T09:37:42.920Z,23.27
2019-02-11T09:40:12.096Z,23.32
2019-02-11T09:42:38.301Z,24.33
2019-02-11T09:45:08.092Z,24.36
2019-02-11T09:47:34.368Z,24.47
2019-02-11T09:50:38.561Z,24.25
2019-02-11T09:53:05.171Z,24.12
2019-02-11T09:55:32.869Z,25.18
2019-02-11T09:57:59.103Z,25.14
2019-02-11T10:00:25.487Z,24.80
2019-02-11T10:02:51.670Z,24.14
2019-02-11T10:05:17.888Z,24.30
2019-02-11T10:07:44.200Z,24.36
2019-02-11T10:10:10.502Z,24.14
2019-02-11T10:12:36.859Z,24.83
2019-02-11T10:15:08.772Z,25.67
2019-02-11T10:17:34.965Z,26.29
2019-02-11T10:20:01.319Z,26.28
2019-02-11T10:22:27.590Z,26.35
2019-02-11T10:24:53.920Z,26.72
2019-02-11T10:27:20.250Z,27.28
2019-02-11T10:29:46.438Z,27.48
2019-02-11T10:32:12.752Z,28.08
2019-02-11T10:34:39.082Z,28.27
2019-02-11T10:37:05.379Z,27.98
2019-02-11T10:39:31.657Z,28.52
2019-02-11T10:41:58.035Z,27.87
2019-02-11T10:44:24.217Z,27.23
2019-02-11T10:46:50.430Z,27.84
2019-02-11T10:49:16.788Z,27.19
2019-02-11T10:51:43.104Z,27.29
2019-02-11T10:54:09.393Z,25.74
2019-02-11T10:56:35.714Z,27.05
2019-02-11T10:59:02.023Z,26.91
2019-02-11T11:01:28.203Z,28.30
2019-02-11T11:03:54.543Z,29.25
2019-02-11T11:06:20.854Z,28.74
2019-02-11T11:08:47.038Z,26.61
2019-02-11T11:11:13.367Z,26.23
2019-02-11T11:13:39.548Z,26.73
2019-02-11T11:16:05.864Z,26.17
2019-02-11T11:18:32.187Z,25.47
2019-02-11T11:20:58.479Z,25.67
2019-02-11T11:23:24.757Z,25.98
2019-02-11T11:25:51.113Z,26.04
2019-02-11T11:28:17.300Z,26.82
2019-02-11T11:30:43.585Z,27.04
2019-02-11T11:33:09.817Z,26.73
2019-02-11T11:35:35.996Z,27.35
2019-02-11T11:38:02.314Z,25.64
2019-02-11T11:40:28.658Z,26.55
2019-02-11T11:42:54.957Z,27.64
2019-02-11T11:45:21.257Z,27.67
2019-02-11T11:47:47.593Z,28.86
2019-02-11T11:50:15.262Z,29.96
2019-02-11T11:52:41.560Z,28.73
2019-02-11T11:55:10.406Z,29.21
2019-02-11T11:57:36.707Z,29.83
2019-02-11T12:00:06.637Z,31.47
2019-02-11T12:02:33.028Z,29.92
2019-02-11T12:04:59.333Z,27.64
2019-02-11T12:07:25.633Z,28.04
2019-02-11T12:09:51.967Z,27.90
2019-02-11T12:12:18.252Z,27.22
2019-02-11T12:14:44.525Z,27.26
2019-02-11T12:17:10.849Z,25.07
2019-02-11T12:19:37.039Z,27.14
2019-02-11T12:22:03.343Z,27.39
2019-02-11T12:24:29.640Z,26.57
2019-02-11T12:26:55.816Z,25.60
2019-02-11T12:29:22.061Z,24.10
2019-02-11T12:31:48.592Z,24.85
2019-02-11T12:34:14.848Z,24.12
2019-02-11T12:36:41.123Z,24.60
2019-02-11T12:39:07.408Z,25.02
2019-02-11T12:41:33.680Z,24.40
2019-02-11T12:43:59.941Z,25.83
2019-02-11T12:46:26.131Z,25.62
2019-02-11T12:48:52.384Z,25.41
2019-02-11T12:51:18.677Z,27.51
2019-02-11T12:53:44.885Z,25.25
2019-02-11T12:56:11.053Z,25.00
2019-02-11T12:58:37.223Z,25.33
2019-02-11T13:01:03.868Z,25.00
2019-02-11T13:03:30.082Z,24.83
2019-02-11T13:05:56.369Z,25.58
2019-02-11T13:08:23.674Z,25.15
2019-02-11T13:10:49.949Z,26.66
2019-02-11T13:13:16.149Z,26.39
2019-02-11T13:15:59.990Z,27.66
2019-02-11T13:18:10.447Z,27.03
2019-02-11T13:20:36.772Z,24.80
2019-02-11T13:23:03.175Z,25.66
2019-02-11T13:25:29.395Z,25.57
2019-02-11T13:27:55.571Z,24.36
2019-02-11T13:30:23.479Z,24.89
2019-02-11T13:32:49.742Z,24.24
2019-02-11T13:35:15.942Z,23.93
2019-02-11T13:37:42.330Z,23.58
2019-02-11T13:40:09.487Z,24.50
2019-02-11T13:42:35.645Z,24.29
2019-02-11T13:45:03.879Z,25.56
2019-02-11T13:47:30.018Z,24.54
2019-02-11T13:49:56.317Z,25.30
2019-02-11T13:52:22.613Z,24.10
2019-02-11T13:54:48.762Z,24.17
2019-02-11T13:57:15.014Z,23.50
2019-02-11T13:59:41.591Z,23.38
2019-02-11T14:02:07.799Z,23.41
2019-02-11T14:04:34.055Z,23.63
2019-02-11T14:07:00.319Z,23.86
2019-02-11T14:09:26.679Z,23.94
2019-02-11T14:11:52.855Z,24.73
2019-02-11T14:14:22.775Z,24.62
2019-02-11T14:16:49.049Z,25.30
2019-02-11T14:19:15.209Z,24.38
2019-02-11T14:21:41.540Z,24.00
2019-02-11T14:24:07.815Z,22.67
2019-02-11T14:26:34.001Z,22.47
2019-02-11T14:29:00.323Z,22.05
2019-02-11T14:31:30.492Z,22.94
2019-02-11T14:33:54.812Z,23.75
2019-02-11T14:36:21.041Z,24.21
2019-02-11T14:38:47.284Z,24.10
2019-02-11T14:41:13.440Z,24.06
2019-02-11T14:43:39.759Z,24.36
2019-02-11T14:46:06.022Z,23.12
2019-02-11T14:48:32.204Z,23.36
2019-02-11T14:50:58.489Z,23.36
2019-02-11T14:53:24.672Z,22.78
2019-02-11T14:55:50.829Z,22.26
2019-02-11T14:58:17.046Z,22.53
2019-02-11T15:00:43.316Z,21.65
2019-02-11T15:03:09.484Z,21.20
2019-02-11T15:05:35.777Z,21.06
2019-02-11T15:08:01.943Z,21.19
2019-02-11T15:10:28.143Z,20.95
2019-02-11T15:12:54.443Z,20.10
2019-02-11T15:15:20.727Z,20.97
2019-02-11T15:17:46.886Z,19.99
2019-02-11T15:20:14.805Z,20.09
2019-02-11T15:22:40.971Z,20.00
2019-02-11T15:25:11.817Z,20.48
2019-02-11T15:27:38.320Z,19.65
2019-02-11T15:30:07.509Z,20.18
2019-02-11T15:32:33.822Z,19.85
2019-02-11T15:35:00.322Z,20.21
2019-02-11T15:37:26.516Z,20.31
2019-02-11T15:39:52.798Z,20.05
2019-02-11T15:42:19.005Z,19.55
2019-02-11T15:44:45.165Z,19.76
2019-02-11T15:47:12.669Z,20.30
2019-02-11T15:49:38.982Z,19.09
2019-02-11T15:52:05.160Z,19.82
2019-02-11T15:54:31.335Z,19.75
2019-02-11T15:56:57.557Z,19.39
2019-02-11T15:59:23.706Z,19.42
2019-02-11T16:01:49.992Z,19.96
2019-02-11T16:04:16.381Z,18.74
2019-02-11T16:06:42.674Z,19.35
2019-02-11T16:09:08.951Z,18.85
2019-02-11T16:11:37.170Z,19.31
2019-02-11T16:14:03.350Z,19.45
2019-02-11T16:16:29.620Z,19.04
2019-02-11T16:18:55.938Z,19.01
2019-02-11T16:21:22.191Z,19.12
2019-02-11T16:23:48.352Z,19.29
2019-02-11T16:26:14.544Z,19.40
2019-02-11T16:28:40.709Z,18.56
2019-02-11T16:31:07.004Z,18.36
2019-02-11T16:33:33.296Z,19.73
2019-02-11T16:35:59.545Z,18.92
2019-02-11T16:38:25.823Z,19.12
2019-02-11T16:40:52.018Z,19.36
2019-02-11T16:43:18.295Z,18.85
2019-02-11T16:45:44.466Z,19.27
2019-02-11T16:48:10.782Z,18.89
2019-02-11T16:50:37.051Z,18.96
2019-02-11T16:53:03.339Z,19.31
2019-02-11T16:55:29.653Z,18.15
2019-02-11T16:57:55.922Z,19.29
2019-02-11T17:00:22.091Z,18.95
2019-02-11T17:02:48.371Z,19.70
2019-02-11T17:05:14.644Z,18.92
2019-02-11T17:07:42.183Z,19.99
2019-02-11T17:10:10.637Z,19.62
2019-02-11T17:12:36.998Z,19.84
2019-02-11T17:15:06.082Z,19.43
2019-02-11T17:17:32.273Z,18.82
2019-02-11T17:19:58.539Z,19.67
2019-02-11T17:22:24.814Z,18.89
2019-02-11T17:24:51.021Z,19.21
2019-02-11T17:27:17.309Z,19.25
2019-02-11T17:29:43.497Z,19.43
2019-02-11T17:32:09.841Z,19.15
2019-02-11T17:34:36.133Z,20.22
2019-02-11T17:37:02.401Z,19.75
2019-02-11T17:39:28.590Z,20.14
2019-02-11T17:41:54.850Z,19.56
2019-02-11T17:44:21.433Z,20.54
2019-02-11T17:46:47.637Z,19.50
2019-02-11T17:49:17.819Z,19.28
2019-02-11T17:51:42.112Z,19.60
2019-02-11T17:54:08.413Z,19.91
2019-02-11T17:56:34.594Z,19.48
2019-02-11T17:59:00.786Z,19.90
2019-02-11T18:01:27.086Z,20.07
2019-02-11T18:03:53.455Z,20.07
2019-02-11T18:06:20.496Z,19.64
2019-02-11T18:08:46.792Z,19.85
2019-02-11T18:11:13.072Z,20.19
2019-02-11T18:13:39.245Z,20.22
2019-02-11T18:16:05.503Z,20.37
2019-02-11T18:18:31.771Z,19.59
2019-02-11T18:20:57.944Z,20.37
2019-02-11T18:23:24.140Z,20.18
2019-02-11T18:25:50.413Z,20.05
2019-02-11T18:28:16.690Z,20.75
2019-02-11T18:30:43.020Z,21.12
2019-02-11T18:33:09.717Z,20.33
2019-02-11T18:35:35.893Z,20.64
2019-02-11T18:38:02.206Z,19.98
2019-02-11T18:40:28.387Z,20.91
2019-02-11T18:42:54.669Z,21.15
2019-02-11T18:45:20.975Z,20.51
2019-02-11T18:47:47.276Z,21.17
2019-02-11T18:50:14.341Z,20.80
2019-02-11T18:52:40.562Z,19.86
2019-02-11T18:55:12.673Z,21.66
2019-02-11T18:57:38.950Z,21.08
2019-02-11T19:00:08.288Z,21.35
2019-02-11T19:02:34.444Z,20.90
2019-02-11T19:05:00.609Z,21.53
2019-02-11T19:07:26.926Z,22.19
2019-02-11T19:09:53.104Z,20.77
2019-02-11T19:12:19.259Z,21.25
2019-02-11T19:14:46.627Z,21.47
2019-02-11T19:17:12.964Z,21.72
2019-02-11T19:19:43.100Z,22.41
2019-02-11T19:22:07.357Z,21.62
2019-02-11T19:24:33.641Z,21.71
2019-02-11T19:26:59.820Z,20.31
2019-02-11T19:29:26.096Z,21.69
2019-02-11T19:31:52.262Z,21.98
2019-02-11T19:34:18.427Z,19.68
2019-02-11T19:36:44.630Z,21.92
2019-02-11T19:39:10.916Z,21.92
2019-02-11T19:41:37.071Z,22.09
2019-02-11T19:44:03.281Z,20.65
2019-02-11T19:46:29.548Z,19.07
2019-02-11T19:48:55.713Z,21.43
2019-02-11T19:51:22.111Z,21.17
2019-02-11T19:53:48.386Z,20.89
2019-02-11T19:56:14.563Z,19.90
2019-02-11T19:58:40.760Z,20.58
2019-02-11T20:01:07.035Z,19.16
2019-02-11T20:03:33.207Z,19.75
2019-02-11T20:05:59.415Z,19.02
2019-02-11T20:08:25.586Z,20.17
2019-02-11T20:10:51.770Z,20.96
2019-02-11T20:13:18.079Z,19.48
2019-02-11T20:15:44.253Z,20.24
2019-02-11T20:18:10.424Z,20.57
2019-02-11T20:20:36.628Z,20.97
2019-02-11T20:23:02.890Z,20.60
2019-02-11T20:25:29.068Z,20.42
2019-02-11T20:27:55.263Z,20.26
2019-02-11T20:30:29.452Z,20.86
2019-02-11T20:32:55.639Z,20.71
2019-02-11T20:35:21.833Z,20.67
2019-02-11T20:37:48.001Z,21.18
2019-02-11T20:40:17.780Z,21.18
2019-02-11T20:42:44.067Z,21.38
2019-02-11T20:45:13.790Z,21.04
2019-02-11T20:47:40.014Z,21.18
2019-02-11T20:50:09.319Z,21.22
2019-02-11T20:52:35.097Z,21.25
2019-02-11T20:55:01.359Z,21.08
2019-02-11T20:57:27.667Z,21.04
2019-02-11T20:59:53.826Z,21.17
2019-02-11T21:02:20.008Z,21.19
2019-02-11T21:04:46.304Z,21.42
2019-02-11T21:07:12.579Z,21.55
2019-02-11T21:09:38.860Z,21.17
2019-02-11T21:12:05.196Z,20.86
2019-02-11T21:14:31.361Z,20.93
2019-02-11T21:16:57.665Z,20.71
2019-02-11T21:19:23.968Z,21.00
2019-02-11T21:21:50.247Z,20.33
2019-02-11T21:24:16.409Z,18.63
2019-02-11T21:26:42.614Z,19.42
2019-02-11T21:29:08.885Z,19.98
2019-02-11T21:31:36.925Z,19.17
2019-02-11T21:34:03.397Z,19.94
2019-02-11T21:36:29.569Z,20.35
2019-02-11T21:38:56.050Z,19.26
2019-02-11T21:41:22.384Z,20.05
2019-02-11T21:43:48.667Z,20.27
2019-02-11T21:46:14.953Z,20.48
2019-02-11T21:48:41.152Z,20.75
2019-02-11T21:51:07.338Z,20.43
2019-02-11T21:53:33.585Z,20.14
2019-02-11T21:55:59.791Z,20.19
2019-02-11T21:58:26.076Z,20.79
2019-02-11T22:00:52.335Z,20.47
2019-02-11T22:03:18.654Z,21.11
2019-02-11T22:05:44.939Z,21.12
2019-02-11T22:08:11.132Z,20.82
2019-02-11T22:10:37.346Z,20.85
2019-02-11T22:13:03.512Z,20.80
2019-02-11T22:15:30.692Z,20.32
2019-02-11T22:17:57.870Z,20.42
2019-02-11T22:20:24.135Z,19.41
2019-02-11T22:22:50.322Z,20.34
2019-02-11T22:25:16.632Z,19.62
2019-02-11T22:27:42.917Z,19.85
2019-02-11T22:30:14.898Z,19.61
2019-02-11T22:32:41.201Z,19.23
2019-02-11T22:35:10.087Z,18.81
2019-02-11T22:37:36.367Z,18.39
2019-02-11T22:40:03.791Z,19.57
2019-02-11T22:42:29.955Z,19.36
2019-02-11T22:44:56.132Z,18.29
2019-02-11T22:47:22.332Z,19.41
2019-02-11T22:49:48.604Z,19.40
2019-02-11T22:52:14.811Z,19.89
2019-02-11T22:54:41.026Z,19.61
2019-02-11T22:57:07.309Z,19.42
2019-02-11T22:59:33.583Z,19.52
2019-02-11T23:02:00.484Z,19.52
2019-02-11T23:04:26.652Z,20.03
2019-02-11T23:06:52.824Z,19.55
2019-02-11T23:09:19.153Z,18.96
2019-02-11T23:11:45.409Z,20.13
2019-02-11T23:14:11.680Z,19.57
2019-02-11T23:16:38.735Z,19.24
2019-02-11T23:19:05.727Z,19.03
2019-02-11T23:21:32.015Z,19.20
2019-02-11T23:23:58.194Z,19.69
2019-02-11T23:26:24.380Z,19.51
2019-02-11T23:28:50.660Z,19.60
2019-02-11T23:31:16.955Z,19.63
2019-02-11T23:33:43.133Z,20.31
2019-02-11T23:36:09.388Z,19.73
2019-02-11T23:38:35.691Z,20.49
2019-02-11T23:41:01.974Z,19.61
2019-02-11T23:43:28.271Z,19.38
2019-02-11T23:45:54.582Z,20.02
2019-02-11T23:48:20.729Z,19.44
2019-02-11T23:50:47.004Z,20.37
2019-02-11T23:53:13.297Z,19.90
2019-02-11T23:55:39.573Z,19.56
2019-02-11T23:58:05.741Z,18.45
